createdAt,value
2019-03-06T00:02:02.425Z,4.70
2019-03-06T00:04:34.583Z,4.53
2019-03-06T00:07:06.615Z,4.63
2019-03-06T00:09:38.560Z,4.90
2019-03-06T00:12:10.525Z,4.70
2019-03-06T00:14:42.761Z,4.90
2019-03-06T00:17:14.738Z,4.30
2019-03-06T00:19:46.709Z,4.70
2019-03-06T00:22:18.669Z,4.33
2019-03-06T00:24:50.899Z,4.37
2019-03-06T00:27:22.879Z,4.43
2019-03-06T00:29:54.826Z,4.37
2019-03-06T00:32:26.780Z,4.60
2019-03-06T00:35:00.378Z,6.13
2019-03-06T00:37:32.328Z,6.27
2019-03-06T00:40:12.043Z,4.73
2019-03-06T00:42:45.630Z,4.57
2019-03-06T00:45:17.587Z,4.97
2019-03-06T00:47:49.537Z,4.63
2019-03-06T00:50:21.830Z,4.53
2019-03-06T00:52:53.787Z,5.13
2019-03-06T00:55:25.763Z,4.73
2019-03-06T00:57:57.723Z,5.00
2019-03-06T01:00:29.744Z,5.30
2019-03-06T01:03:01.777Z,4.30
2019-03-06T01:05:33.755Z,5.00
2019-03-06T01:08:06.103Z,5.23
2019-03-06T01:10:38.070Z,5.43
2019-03-06T01:13:10.046Z,5.00
2019-03-06T01:15:42.281Z,4.60
2019-03-06T01:18:14.551Z,5.03
2019-03-06T01:20:46.564Z,5.50
2019-03-06T01:23:18.534Z,4.87
2019-03-06T01:25:50.485Z,5.20
2019-03-06T01:28:22.470Z,5.57
2019-03-06T01:30:54.484Z,5.50
2019-03-06T01:33:33.612Z,6.30
2019-03-06T01:36:16.453Z,6.30
2019-03-06T01:39:07.232Z,6.97
2019-03-06T01:41:52.906Z,6.27
2019-03-06T01:44:26.565Z,7.07
2019-03-06T01:46:58.592Z,7.17
2019-03-06T01:49:30.947Z,8.10
2019-03-06T01:52:03.443Z,7.47
2019-03-06T01:54:35.451Z,9.17
2019-03-06T01:57:07.414Z,9.30
2019-03-06T01:59:39.364Z,9.20
2019-03-06T02:02:11.894Z,8.37
2019-03-06T02:04:44.163Z,8.90
2019-03-06T02:07:16.237Z,9.60
2019-03-06T02:09:48.176Z,9.13
2019-03-06T02:12:20.146Z,8.83
2019-03-06T02:14:52.386Z,9.37
2019-03-06T02:17:41.893Z,10.43
2019-03-06T02:20:17.237Z,10.20
2019-03-06T02:22:49.189Z,9.10
2019-03-06T02:25:21.139Z,10.17
2019-03-06T02:27:53.109Z,9.07
2019-03-06T02:30:26.688Z,10.80
2019-03-06T02:32:58.662Z,9.67
2019-03-06T02:35:31.201Z,9.03
2019-03-06T02:38:03.170Z,10.83
2019-03-06T02:40:35.109Z,9.60
2019-03-06T02:43:07.057Z,10.33
2019-03-06T02:45:39.025Z,9.43
2019-03-06T02:48:11.281Z,9.87
2019-03-06T02:50:43.580Z,9.67
2019-03-06T02:53:15.534Z,10.27
2019-03-06T02:55:47.767Z,10.73
2019-03-06T02:58:27.062Z,10.40
2019-03-06T03:01:03.362Z,10.13
2019-03-06T03:03:36.981Z,10.57
2019-03-06T03:06:25.818Z,11.13
2019-03-06T03:08:57.793Z,9.63
2019-03-06T03:11:29.747Z,9.87
2019-03-06T03:14:01.716Z,10.10
2019-03-06T03:16:33.667Z,10.23
2019-03-06T03:19:05.788Z,10.50
2019-03-06T03:21:37.970Z,10.47
2019-03-06T03:24:09.935Z,10.43
2019-03-06T03:26:42.076Z,9.77
2019-03-06T03:29:14.029Z,10.73
2019-03-06T03:31:46.346Z,9.77
2019-03-06T03:34:18.374Z,10.37
2019-03-06T03:36:50.674Z,9.97
2019-03-06T03:39:22.631Z,10.40
2019-03-06T03:41:54.631Z,10.47
2019-03-06T03:44:26.968Z,10.37
2019-03-06T03:46:58.924Z,10.53
2019-03-06T03:49:30.877Z,10.40
2019-03-06T03:52:02.906Z,10.07
2019-03-06T03:54:34.871Z,10.17
2019-03-06T03:57:07.209Z,10.00
2019-03-06T03:59:39.165Z,9.73
2019-03-06T04:02:11.153Z,10.60
2019-03-06T04:04:43.104Z,11.30
2019-03-06T04:07:15.059Z,9.60
2019-03-06T04:09:47.661Z,9.73
2019-03-06T04:12:19.600Z,10.03
2019-03-06T04:14:52.181Z,11.00
2019-03-06T04:17:24.191Z,9.83
2019-03-06T04:19:56.361Z,9.93
2019-03-06T04:22:28.320Z,9.50
2019-03-06T04:25:00.428Z,10.40
2019-03-06T04:27:32.446Z,11.20
2019-03-06T04:30:07.179Z,10.23
2019-03-06T04:32:39.156Z,10.60
2019-03-06T04:35:11.249Z,11.27
2019-03-06T04:37:43.247Z,10.93
2019-03-06T04:40:16.153Z,11.03
2019-03-06T04:42:48.143Z,12.07
2019-03-06T04:45:20.174Z,11.50
2019-03-06T04:47:52.413Z,11.37
2019-03-06T04:50:24.376Z,11.53
2019-03-06T04:52:56.647Z,11.67
2019-03-06T04:55:28.596Z,12.47
2019-03-06T04:58:00.616Z,12.93
2019-03-06T05:00:32.567Z,12.90
2019-03-06T05:03:04.538Z,13.53
2019-03-06T05:05:36.773Z,14.07
2019-03-06T05:08:08.741Z,13.03
2019-03-06T05:10:40.693Z,13.47
2019-03-06T05:13:12.718Z,14.10
2019-03-06T05:15:44.670Z,13.93
2019-03-06T05:18:18.267Z,14.30
2019-03-06T05:20:50.241Z,14.13
2019-03-06T05:23:22.222Z,14.00
2019-03-06T05:25:54.178Z,13.83
2019-03-06T05:28:26.136Z,14.50
2019-03-06T05:30:58.324Z,15.27
2019-03-06T05:33:30.350Z,14.33
2019-03-06T05:36:18.895Z,15.27
2019-03-06T05:39:02.586Z,15.23
2019-03-06T05:41:34.553Z,14.80
2019-03-06T05:44:06.958Z,15.43
2019-03-06T05:46:38.925Z,15.10
2019-03-06T05:49:11.651Z,14.67
2019-03-06T05:51:43.613Z,15.43
2019-03-06T05:54:15.576Z,16.03
2019-03-06T05:56:48.493Z,15.03
2019-03-06T05:59:20.869Z,14.33
2019-03-06T06:01:52.832Z,16.37
2019-03-06T06:04:24.813Z,15.87
2019-03-06T06:06:56.770Z,17.03
2019-03-06T06:09:29.140Z,16.07
2019-03-06T06:12:01.107Z,15.40
2019-03-06T06:14:33.080Z,16.53
2019-03-06T06:17:05.146Z,17.57
2019-03-06T06:19:37.549Z,17.43
2019-03-06T06:22:13.814Z,17.57
2019-03-06T06:24:46.045Z,17.17
2019-03-06T06:27:18.005Z,17.70
2019-03-06T06:29:50.688Z,17.33
2019-03-06T06:32:22.647Z,17.27
2019-03-06T06:34:54.599Z,16.73
2019-03-06T06:37:27.133Z,17.27
2019-03-06T06:39:59.737Z,17.77
2019-03-06T06:42:31.721Z,18.30
2019-03-06T06:45:04.537Z,17.63
2019-03-06T06:47:36.492Z,18.43
2019-03-06T06:50:10.786Z,17.77
2019-03-06T06:53:04.529Z,17.80
2019-03-06T06:55:41.479Z,18.40
2019-03-06T06:58:31.045Z,18.80
2019-03-06T07:01:11.883Z,19.33
2019-03-06T07:04:41.389Z,17.13
2019-03-06T07:07:14.981Z,18.27
2019-03-06T07:10:06.649Z,18.07
2019-03-06T07:12:40.526Z,18.60
2019-03-06T07:15:20.282Z,20.23
2019-03-06T07:18:00.152Z,19.80
2019-03-06T07:20:36.708Z,19.87
2019-03-06T07:23:22.277Z,20.83
2019-03-06T07:26:05.129Z,19.50
2019-03-06T07:28:38.720Z,19.60
2019-03-06T07:31:12.328Z,19.67
2019-03-06T07:33:45.942Z,19.83
2019-03-06T07:36:19.557Z,19.70
2019-03-06T07:38:52.237Z,19.13
2019-03-06T07:41:28.528Z,19.53
2019-03-06T07:44:18.277Z,19.57
2019-03-06T07:46:58.050Z,18.50
2019-03-06T07:49:31.627Z,19.33
2019-03-06T07:52:23.464Z,20.20
2019-03-06T07:55:09.301Z,18.77
2019-03-06T07:58:37.530Z,18.27
2019-03-06T08:01:16.874Z,19.60
2019-03-06T08:03:43.775Z,20.03
2019-03-06T08:06:16.174Z,19.57
2019-03-06T08:08:50.387Z,20.70
2019-03-06T08:11:23.994Z,18.90
2019-03-06T08:13:57.599Z,18.87
2019-03-06T08:16:31.636Z,19.70
2019-03-06T08:19:05.627Z,21.03
2019-03-06T08:21:53.879Z,21.70
2019-03-06T08:24:27.943Z,21.70
2019-03-06T08:26:59.938Z,21.67
2019-03-06T08:29:31.911Z,20.53
2019-03-06T08:32:06.253Z,16.97
2019-03-06T08:34:38.294Z,17.93
2019-03-06T08:37:10.256Z,18.37
2019-03-06T08:39:42.403Z,17.87
2019-03-06T08:42:14.373Z,18.50
2019-03-06T08:44:46.517Z,17.37
2019-03-06T08:47:23.044Z,19.33
2019-03-06T08:49:59.207Z,18.57
2019-03-06T08:52:34.333Z,17.77
2019-03-06T08:55:11.108Z,17.83
2019-03-06T08:57:47.729Z,24.77
2019-03-06T09:00:30.676Z,27.80
2019-03-06T09:03:14.930Z,26.83
2019-03-06T09:06:04.935Z,22.00
2019-03-06T09:08:41.502Z,20.57
2019-03-06T09:11:17.796Z,19.20
2019-03-06T09:14:07.713Z,17.70
2019-03-06T09:16:47.248Z,17.37
2019-03-06T09:19:20.852Z,16.07
2019-03-06T09:22:10.672Z,16.07
2019-03-06T09:24:44.312Z,16.53
2019-03-06T09:27:17.930Z,15.67
2019-03-06T09:30:15.760Z,15.33
2019-03-06T09:32:50.505Z,15.37
2019-03-06T09:35:27.596Z,16.43
2019-03-06T09:38:11.072Z,16.67
2019-03-06T09:40:51.435Z,16.50
2019-03-06T09:43:25.051Z,15.30
2019-03-06T09:46:04.409Z,15.10
2019-03-06T09:48:40.759Z,16.50
2019-03-06T09:51:23.315Z,17.90
2019-03-06T09:53:57.213Z,16.83
2019-03-06T09:56:39.656Z,16.87
2019-03-06T09:59:28.391Z,16.77
2019-03-06T10:02:06.863Z,18.27
2019-03-06T10:04:43.069Z,20.17
2019-03-06T10:07:16.791Z,17.60
2019-03-06T10:09:58.867Z,16.47
2019-03-06T10:12:47.589Z,16.43
2019-03-06T10:15:22.839Z,14.90
2019-03-06T10:17:59.459Z,14.53
2019-03-06T10:20:31.689Z,13.70
2019-03-06T10:23:03.736Z,13.00
2019-03-06T10:25:35.714Z,12.27
2019-03-06T10:28:07.952Z,12.20
2019-03-06T10:30:40.139Z,13.27
2019-03-06T10:33:12.208Z,12.90
2019-03-06T10:35:44.763Z,12.17
2019-03-06T10:38:17.173Z,12.80
2019-03-06T10:40:49.268Z,12.03
2019-03-06T10:43:23.594Z,10.80
2019-03-06T10:45:58.020Z,11.73
2019-03-06T10:48:31.630Z,11.97
2019-03-06T10:51:03.804Z,12.17
2019-03-06T10:53:41.261Z,10.40
2019-03-06T10:56:09.610Z,10.53
2019-03-06T10:58:41.896Z,9.73
2019-03-06T11:01:14.234Z,10.23
2019-03-06T11:03:50.638Z,10.07
2019-03-06T11:06:22.692Z,9.63
2019-03-06T11:08:54.979Z,9.27
2019-03-06T11:11:26.940Z,9.07
2019-03-06T11:14:05.904Z,8.07
2019-03-06T11:16:34.739Z,8.63
2019-03-06T11:19:07.242Z,7.87
2019-03-06T11:21:39.257Z,7.73
2019-03-06T11:24:11.556Z,6.67
2019-03-06T11:26:43.796Z,7.10
2019-03-06T11:29:16.032Z,6.83
2019-03-06T11:31:48.148Z,7.00
2019-03-06T11:34:20.168Z,7.87
2019-03-06T11:36:52.591Z,6.80
2019-03-06T11:39:25.046Z,8.00
2019-03-06T11:41:57.077Z,6.97
2019-03-06T11:44:29.324Z,7.47
2019-03-06T11:47:01.704Z,6.60
2019-03-06T11:49:34.022Z,6.57
2019-03-06T11:52:06.565Z,6.50
2019-03-06T11:54:38.754Z,7.40
2019-03-06T11:57:10.934Z,7.37
2019-03-06T11:59:43.008Z,6.70
2019-03-06T12:02:16.964Z,7.10
2019-03-06T12:04:49.265Z,7.53
2019-03-06T12:07:21.902Z,8.03
2019-03-06T12:09:54.185Z,8.00
2019-03-06T12:12:26.161Z,8.03
2019-03-06T12:14:58.398Z,8.23
2019-03-06T12:17:30.744Z,7.77
2019-03-06T12:20:08.075Z,7.77
2019-03-06T12:22:36.428Z,7.53
2019-03-06T12:25:13.295Z,7.43
2019-03-06T12:27:45.287Z,7.77
2019-03-06T12:30:19.153Z,7.83
2019-03-06T12:32:51.232Z,7.60
2019-03-06T12:35:23.183Z,7.40
2019-03-06T12:37:55.675Z,7.77
2019-03-06T12:40:30.045Z,6.60
2019-03-06T12:43:02.317Z,8.13
2019-03-06T12:45:34.662Z,7.90
2019-03-06T12:48:17.270Z,7.87
2019-03-06T12:50:55.269Z,7.70
2019-03-06T12:53:23.799Z,7.83
2019-03-06T12:55:56.073Z,8.03
2019-03-06T12:58:28.507Z,7.70
2019-03-06T13:01:01.466Z,7.83
2019-03-06T13:03:34.262Z,7.50
2019-03-06T13:06:06.299Z,7.20
2019-03-06T13:08:38.890Z,7.13
2019-03-06T13:11:11.878Z,6.63
2019-03-06T13:13:43.897Z,7.70
2019-03-06T13:16:15.883Z,7.37
2019-03-06T13:18:47.873Z,7.13
2019-03-06T13:21:20.314Z,7.07
2019-03-06T13:23:52.296Z,7.33
2019-03-06T13:26:24.586Z,7.50
2019-03-06T13:28:57.621Z,6.43
2019-03-06T13:31:30.555Z,6.73
2019-03-06T13:34:13.378Z,7.17
2019-03-06T13:36:45.633Z,6.33
2019-03-06T13:39:17.714Z,6.40
2019-03-06T13:41:50.082Z,6.83
2019-03-06T13:44:22.623Z,6.67
2019-03-06T13:46:55.254Z,6.20
2019-03-06T13:49:27.578Z,6.20
2019-03-06T13:51:59.755Z,6.13
2019-03-06T13:54:32.274Z,5.83
2019-03-06T13:57:05.213Z,6.27
2019-03-06T13:59:37.382Z,6.23
2019-03-06T14:02:09.605Z,6.20
2019-03-06T14:04:41.678Z,5.83
2019-03-06T14:07:13.941Z,6.20
2019-03-06T14:09:46.257Z,6.27
2019-03-06T14:12:18.301Z,6.03
2019-03-06T14:14:50.391Z,5.47
2019-03-06T14:17:22.396Z,6.60
2019-03-06T14:19:54.348Z,6.43
2019-03-06T14:22:26.334Z,6.40
2019-03-06T14:24:58.291Z,6.43
2019-03-06T14:27:31.310Z,6.60
2019-03-06T14:30:04.869Z,6.70
2019-03-06T14:32:38.597Z,6.20
2019-03-06T14:35:10.684Z,6.93
2019-03-06T14:37:42.646Z,6.33
2019-03-06T14:40:27.846Z,6.23
2019-03-06T14:43:01.705Z,6.93
2019-03-06T14:45:33.828Z,6.93
2019-03-06T14:48:07.145Z,5.90
2019-03-06T14:50:39.106Z,7.10
2019-03-06T14:53:11.087Z,6.97
2019-03-06T14:55:43.125Z,6.80
2019-03-06T14:58:15.292Z,6.60
2019-03-06T15:00:47.388Z,7.10
2019-03-06T15:03:19.505Z,6.80
2019-03-06T15:05:51.469Z,7.13
2019-03-06T15:08:23.477Z,6.87
2019-03-06T15:10:55.448Z,6.10
2019-03-06T15:13:27.847Z,7.40
2019-03-06T15:16:00.548Z,7.13
2019-03-06T15:18:32.821Z,6.67
2019-03-06T15:21:05.011Z,7.60
2019-03-06T15:23:37.308Z,7.60
2019-03-06T15:26:10.047Z,7.23
2019-03-06T15:28:42.174Z,7.60
2019-03-06T15:31:14.530Z,6.77
2019-03-06T15:33:46.518Z,6.87
2019-03-06T15:36:18.557Z,6.50
2019-03-06T15:38:50.699Z,6.73
2019-03-06T15:41:22.664Z,6.83
2019-03-06T15:43:54.683Z,6.17
2019-03-06T15:46:31.339Z,7.03
2019-03-06T15:49:04.868Z,7.00
2019-03-06T15:51:36.845Z,6.70
2019-03-06T15:54:08.896Z,7.07
2019-03-06T15:56:41.263Z,7.67
2019-03-06T15:59:15.379Z,6.90
2019-03-06T16:01:47.455Z,7.13
2019-03-06T16:04:19.431Z,7.23
2019-03-06T16:06:54.200Z,6.83
2019-03-06T16:09:25.915Z,6.57
2019-03-06T16:11:58.413Z,7.37
2019-03-06T16:14:30.725Z,7.13
2019-03-06T16:17:02.833Z,7.73
2019-03-06T16:19:34.897Z,6.33
2019-03-06T16:22:07.326Z,7.30
2019-03-06T16:24:39.310Z,7.33
2019-03-06T16:27:11.329Z,7.30
2019-03-06T16:29:43.311Z,7.00
2019-03-06T16:32:16.154Z,7.13
2019-03-06T16:34:48.556Z,6.83
2019-03-06T16:37:20.788Z,6.53
2019-03-06T16:39:52.834Z,7.27
2019-03-06T16:42:24.889Z,7.37
2019-03-06T16:44:56.909Z,7.00
2019-03-06T16:47:28.913Z,6.90
2019-03-06T16:50:00.958Z,7.17
2019-03-06T16:52:33.199Z,7.43
2019-03-06T16:55:09.891Z,7.30
2019-03-06T16:57:42.341Z,6.93
2019-03-06T17:00:34.667Z,6.70
2019-03-06T17:03:10.364Z,7.20
2019-03-06T17:05:42.810Z,6.53
2019-03-06T17:08:14.842Z,6.40
2019-03-06T17:10:46.837Z,6.00
2019-03-06T17:13:18.944Z,7.20
2019-03-06T17:15:50.995Z,6.90
2019-03-06T17:18:23.345Z,6.73
2019-03-06T17:20:55.498Z,6.60
2019-03-06T17:23:27.555Z,6.47
2019-03-06T17:25:59.907Z,6.57
2019-03-06T17:28:32.225Z,6.33
2019-03-06T17:31:04.392Z,6.57
2019-03-06T17:33:36.359Z,6.20
2019-03-06T17:36:08.325Z,7.07
2019-03-06T17:38:40.523Z,6.80
2019-03-06T17:41:13.271Z,6.70
2019-03-06T17:43:46.098Z,6.60
2019-03-06T17:46:18.442Z,7.33
2019-03-06T17:48:50.926Z,6.77
2019-03-06T17:51:23.031Z,6.80
2019-03-06T17:53:54.993Z,6.67
2019-03-06T17:56:27.315Z,7.03
2019-03-06T17:59:00.214Z,7.13
2019-03-06T18:01:32.666Z,7.23
2019-03-06T18:04:06.967Z,7.60
2019-03-06T18:06:38.979Z,7.27
2019-03-06T18:09:11.961Z,7.30
2019-03-06T18:11:43.924Z,7.53
2019-03-06T18:14:15.988Z,7.13
2019-03-06T18:16:48.068Z,7.07
2019-03-06T18:19:20.027Z,7.07
2019-03-06T18:21:51.997Z,7.27
2019-03-06T18:24:24.232Z,7.13
2019-03-06T18:26:56.222Z,7.47
2019-03-06T18:29:28.181Z,6.60
2019-03-06T18:32:00.215Z,7.67
2019-03-06T18:34:32.239Z,6.70
2019-03-06T18:37:04.186Z,6.90
2019-03-06T18:39:36.226Z,6.27
2019-03-06T18:42:08.206Z,6.80
2019-03-06T18:44:40.472Z,6.93
2019-03-06T18:47:12.424Z,6.87
2019-03-06T18:49:44.472Z,7.03
2019-03-06T18:52:16.802Z,7.13
2019-03-06T18:54:49.130Z,6.57
2019-03-06T18:57:21.402Z,6.80
2019-03-06T18:59:53.382Z,7.03
2019-03-06T19:02:25.363Z,6.63
2019-03-06T19:04:57.610Z,6.90
2019-03-06T19:07:29.577Z,7.40
2019-03-06T19:10:01.535Z,6.50
2019-03-06T19:12:33.537Z,7.00
2019-03-06T19:15:09.771Z,6.93
2019-03-06T19:17:41.803Z,6.97
2019-03-06T19:20:15.463Z,7.30
2019-03-06T19:22:48.644Z,6.73
2019-03-06T19:25:21.010Z,6.73
2019-03-06T19:27:53.384Z,6.87
2019-03-06T19:30:27.113Z,6.90
2019-03-06T19:32:59.340Z,6.50
2019-03-06T19:35:31.329Z,7.17
2019-03-06T19:38:03.315Z,7.00
2019-03-06T19:40:35.352Z,7.13
2019-03-06T19:43:07.367Z,6.47
2019-03-06T19:45:39.366Z,7.10
2019-03-06T19:48:11.448Z,7.37
2019-03-06T19:50:43.801Z,6.87
2019-03-06T19:53:15.830Z,6.70
2019-03-06T19:55:47.800Z,7.03
2019-03-06T19:58:19.780Z,7.30
2019-03-06T20:00:51.745Z,6.70
2019-03-06T20:03:23.711Z,7.07
2019-03-06T20:05:55.675Z,7.33
2019-03-06T20:08:27.722Z,7.07
2019-03-06T20:11:00.053Z,6.87
2019-03-06T20:13:32.413Z,6.67
2019-03-06T20:16:04.391Z,7.20
2019-03-06T20:18:36.350Z,6.93
2019-03-06T20:21:08.317Z,7.40
2019-03-06T20:23:40.275Z,7.77
2019-03-06T20:26:15.014Z,7.67
2019-03-06T20:28:46.731Z,7.30
2019-03-06T20:31:19.017Z,7.30
2019-03-06T20:33:51.018Z,7.27
2019-03-06T20:36:23.003Z,7.60
2019-03-06T20:38:55.831Z,6.87
2019-03-06T20:41:28.344Z,8.57
2019-03-06T20:44:00.296Z,7.90
2019-03-06T20:46:32.297Z,7.57
2019-03-06T20:49:04.699Z,7.80
2019-03-06T20:51:40.362Z,8.37
2019-03-06T20:54:12.550Z,7.53
2019-03-06T20:56:44.512Z,7.30
2019-03-06T20:59:16.761Z,8.30
2019-03-06T21:01:48.755Z,7.87
2019-03-06T21:04:20.846Z,7.90
2019-03-06T21:06:53.089Z,9.00
2019-03-06T21:09:25.336Z,8.03
2019-03-06T21:11:57.319Z,8.40
2019-03-06T21:14:29.280Z,8.00
2019-03-06T21:17:01.255Z,7.50
2019-03-06T21:19:33.198Z,8.30
2019-03-06T21:22:05.650Z,8.43
2019-03-06T21:24:37.935Z,7.87
2019-03-06T21:27:09.910Z,8.20
2019-03-06T21:29:41.858Z,8.47
2019-03-06T21:32:13.811Z,8.17
2019-03-06T21:34:46.142Z,8.23
2019-03-06T21:37:18.252Z,8.80
2019-03-06T21:39:50.211Z,8.50
2019-03-06T21:42:22.148Z,8.53
2019-03-06T21:44:54.097Z,9.10
2019-03-06T21:47:26.232Z,8.20
2019-03-06T21:49:58.183Z,8.07
2019-03-06T21:52:32.642Z,7.90
2019-03-06T21:55:06.363Z,9.17
2019-03-06T21:57:38.519Z,8.50
2019-03-06T22:00:24.436Z,9.00
2019-03-06T22:02:56.753Z,8.47
2019-03-06T22:05:28.788Z,8.70
2019-03-06T22:08:00.754Z,8.27
2019-03-06T22:10:32.722Z,8.33
2019-03-06T22:13:05.106Z,8.23
2019-03-06T22:15:37.056Z,9.73
2019-03-06T22:18:09.985Z,9.00
2019-03-06T22:20:41.936Z,8.43
2019-03-06T22:23:13.923Z,8.93
2019-03-06T22:25:45.890Z,8.80
2019-03-06T22:28:18.213Z,8.60
2019-03-06T22:30:50.198Z,8.93
2019-03-06T22:33:22.339Z,9.40
2019-03-06T22:35:55.033Z,8.50
2019-03-06T22:38:26.987Z,9.30
2019-03-06T22:40:58.949Z,9.10
2019-03-06T22:43:30.973Z,9.67
2019-03-06T22:46:03.325Z,7.90
2019-03-06T22:48:36.897Z,8.93
2019-03-06T22:51:09.119Z,8.70
2019-03-06T22:53:41.139Z,9.10
2019-03-06T22:56:13.110Z,7.93
2019-03-06T22:58:45.055Z,8.27
2019-03-06T23:01:24.504Z,9.07
2019-03-06T23:03:57.269Z,7.17
2019-03-06T23:06:29.227Z,8.20
2019-03-06T23:09:01.216Z,7.63
2019-03-06T23:11:33.218Z,7.90
2019-03-06T23:14:05.173Z,8.33
2019-03-06T23:16:37.118Z,7.40
2019-03-06T23:19:09.258Z,7.20
2019-03-06T23:21:41.219Z,7.50
2019-03-06T23:24:13.488Z,6.97
2019-03-06T23:26:45.481Z,7.23
2019-03-06T23:29:17.407Z,6.30
2019-03-06T23:31:50.480Z,7.13
2019-03-06T23:34:22.695Z,6.87
2019-03-06T23:36:54.756Z,6.93
2019-03-06T23:39:26.707Z,6.37
2019-03-06T23:41:59.079Z,6.63
2019-03-06T23:44:31.049Z,6.87
2019-03-06T23:47:03.165Z,6.73
2019-03-06T23:49:36.931Z,6.80
2019-03-06T23:52:10.415Z,6.00
2019-03-06T23:54:42.705Z,7.37
2019-03-06T23:57:14.750Z,6.57
2019-03-06T23:59:46.706Z,6.43
